sensor_id;sensor_type;location;lat;lon;timestamp;noise_LAeq;noise_LA_min;noise_LA_max;noise_LA01;noise_LA95
58197;Laerm;43999;51.660;5.616;2023-03-23T00:01:21;61.49;40.62;87.67;;
58197;Laerm;43999;51.660;5.616;2023-03-23T00:03:52;60.63;40.43;82.81;;
58197;Laerm;43999;51.660;5.616;2023-03-23T00:06:20;62.30;38.81;86.72;;
58197;Laerm;43999;51.660;5.616;2023-03-23T00:08:50;60.08;39.08;80.57;;
58197;Laerm;43999;51.660;5.616;2023-03-23T00:11:31;61.25;38.74;82.95;;
58197;Laerm;43999;51.660;5.616;2023-03-23T00:14:00;59.01;37.87;82.83;;
58197;Laerm;43999;51.660;5.616;2023-03-23T00:16:32;67.07;38.74;87.61;;
58197;Laerm;43999;51.660;5.616;2023-03-23T00:19:09;59.22;38.67;78.95;;
58197;Laerm;43999;51.660;5.616;2023-03-23T00:21:41;58.59;38.52;81.49;;
58197;Laerm;43999;51.660;5.616;2023-03-23T00:24:13;60.27;37.12;85.18;;
58197;Laerm;43999;51.660;5.616;2023-03-23T00:26:45;55.16;39.08;79.44;;
58197;Laerm;43999;51.660;5.616;2023-03-23T00:29:21;51.71;38.21;75.39;;
58197;Laerm;43999;51.660;5.616;2023-03-23T00:31:52;46.81;38.21;69.16;;
58197;Laerm;43999;51.660;5.616;2023-03-23T00:34:22;58.61;38.81;87.10;;
58197;Laerm;43999;51.660;5.616;2023-03-23T00:36:54;55.02;37.70;80.66;;
58197;Laerm;43999;51.660;5.616;2023-03-23T00:39:24;45.62;38.81;66.48;;
58197;Laerm;43999;51.660;5.616;2023-03-23T00:41:52;50.32;38.67;69.27;;
58197;Laerm;43999;51.660;5.616;2023-03-23T00:44:19;54.03;38.52;77.06;;
58197;Laerm;43999;51.660;5.616;2023-03-23T00:46:49;49.43;38.05;75.04;;
58197;Laerm;43999;51.660;5.616;2023-03-23T00:49:20;47.18;37.70;70.85;;
58197;Laerm;43999;51.660;5.616;2023-03-23T00:51:57;52.95;37.70;70.54;;
58197;Laerm;43999;51.660;5.616;2023-03-23T00:54:28;47.22;38.37;73.38;;
58197;Laerm;43999;51.660;5.616;2023-03-23T00:56:56;62.28;37.52;87.99;;
58197;Laerm;43999;51.660;5.616;2023-03-23T00:59:24;50.64;40.53;66.63;;
58197;Laerm;43999;51.660;5.616;2023-03-23T01:01:52;53.25;46.43;59.95;;
58197;Laerm;43999;51.660;5.616;2023-03-23T01:04:18;55.66;48.16;74.82;;
58197;Laerm;43999;51.660;5.616;2023-03-23T01:06:50;57.30;44.76;76.37;;
58197;Laerm;43999;51.660;5.616;2023-03-23T01:09:18;51.72;41.53;76.48;;
58197;Laerm;43999;51.660;5.616;2023-03-23T01:11:50;52.85;39.58;75.17;;
58197;Laerm;43999;51.660;5.616;2023-03-23T01:14:19;55.50;38.81;78.53;;
58197;Laerm;43999;51.660;5.616;2023-03-23T01:16:49;54.21;37.52;81.53;;
58197;Laerm;43999;51.660;5.616;2023-03-23T01:19:16;58.15;38.67;79.95;;
58197;Laerm;43999;51.660;5.616;2023-03-23T01:21:42;59.60;38.95;78.50;;
58197;Laerm;43999;51.660;5.616;2023-03-23T01:24:08;62.20;37.52;84.59;;
58197;Laerm;43999;51.660;5.616;2023-03-23T01:26:35;55.70;38.21;80.39;;
58197;Laerm;43999;51.660;5.616;2023-03-23T01:29:02;58.88;38.95;79.47;;
58197;Laerm;43999;51.660;5.616;2023-03-23T01:31:29;60.88;38.21;80.79;;
58197;Laerm;43999;51.660;5.616;2023-03-23T01:33:55;59.95;38.32;80.44;;
58197;Laerm;43999;51.660;5.616;2023-03-23T01:36:27;59.36;38.52;84.73;;
58197;Laerm;43999;51.660;5.616;2023-03-23T01:39:04;56.58;38.67;75.89;;
58197;Laerm;43999;51.660;5.616;2023-03-23T01:41:33;65.43;38.99;86.24;;
58197;Laerm;43999;51.660;5.616;2023-03-23T01:47:04;66.59;39.46;89.26;;
58197;Laerm;43999;51.660;5.616;2023-03-23T01:49:43;63.34;38.67;88.96;;
58197;Laerm;43999;51.660;5.616;2023-03-23T01:52:27;62.70;39.70;86.35;;
58197;Laerm;43999;51.660;5.616;2023-03-23T01:55:00;58.26;38.37;81.93;;
58197;Laerm;43999;51.660;5.616;2023-03-23T01:57:27;67.02;40.71;88.02;;
58197;Laerm;43999;51.660;5.616;2023-03-23T02:00:03;67.74;39.34;90.01;;
58197;Laerm;43999;51.660;5.616;2023-03-23T02:02:48;64.95;38.95;85.70;;
58197;Laerm;43999;51.660;5.616;2023-03-23T02:05:41;62.40;38.81;84.99;;
58197;Laerm;43999;51.660;5.616;2023-03-23T02:08:19;67.93;39.70;87.75;;
58197;Laerm;43999;51.660;5.616;2023-03-23T02:10:47;68.51;39.46;89.88;;
58197;Laerm;43999;51.660;5.616;2023-03-23T02:13:14;62.19;40.23;83.42;;
58197;Laerm;43999;51.660;5.616;2023-03-23T02:16:44;62.37;39.46;86.57;;
58197;Laerm;43999;51.660;5.616;2023-03-23T02:26:47;65.49;39.08;88.86;;
58197;Laerm;43999;51.660;5.616;2023-03-23T02:33:31;63.69;38.52;89.40;;
58197;Laerm;43999;51.660;5.616;2023-03-23T02:36:37;59.57;38.52;87.19;;
58197;Laerm;43999;51.660;5.616;2023-03-23T02:39:43;58.84;38.60;85.51;;
58197;Laerm;43999;51.660;5.616;2023-03-23T02:42:22;60.34;38.95;81.52;;
58197;Laerm;43999;51.660;5.616;2023-03-23T02:44:54;69.38;39.34;90.95;;
58197;Laerm;43999;51.660;5.616;2023-03-23T02:47:27;57.98;39.08;78.89;;
58197;Laerm;43999;51.660;5.616;2023-03-23T02:49:57;51.59;38.21;72.47;;
58197;Laerm;43999;51.660;5.616;2023-03-23T02:52:32;54.55;37.88;78.13;;
58197;Laerm;43999;51.660;5.616;2023-03-23T02:55:01;59.35;39.21;83.95;;
58197;Laerm;43999;51.660;5.616;2023-03-23T02:57:28;55.59;38.52;82.36;;
58197;Laerm;43999;51.660;5.616;2023-03-23T02:59:58;53.18;39.58;71.26;;
58197;Laerm;43999;51.660;5.616;2023-03-23T03:02:36;54.79;39.70;76.76;;
58197;Laerm;43999;51.660;5.616;2023-03-23T03:08:40;57.93;40.13;83.67;;
58197;Laerm;43999;51.660;5.616;2023-03-23T03:11:13;65.42;40.89;92.76;;
58197;Laerm;43999;51.660;5.616;2023-03-23T03:14:13;57.56;40.80;80.09;;
58197;Laerm;43999;51.660;5.616;2023-03-23T03:17:04;61.97;41.06;86.07;;
58197;Laerm;43999;51.660;5.616;2023-03-23T03:19:39;60.19;40.03;82.80;;
58197;Laerm;43999;51.660;5.616;2023-03-23T03:22:08;65.80;38.81;92.01;;
58197;Laerm;43999;51.660;5.616;2023-03-23T03:24:41;68.65;39.81;91.75;;
58197;Laerm;43999;51.660;5.616;2023-03-23T03:27:18;50.26;40.03;73.08;;
58197;Laerm;43999;51.660;5.616;2023-03-23T03:29:58;58.74;40.03;86.46;;
58197;Laerm;43999;51.660;5.616;2023-03-23T03:32:40;53.93;38.37;77.25;;
58197;Laerm;43999;51.660;5.616;2023-03-23T03:35:08;52.53;40.33;74.33;;
58197;Laerm;43999;51.660;5.616;2023-03-23T03:37:38;60.86;40.80;86.98;;
58197;Laerm;43999;51.660;5.616;2023-03-23T03:40:14;52.33;40.23;80.04;;
58197;Laerm;43999;51.660;5.616;2023-03-23T03:42:44;50.78;40.54;70.13;;
58197;Laerm;43999;51.660;5.616;2023-03-23T03:45:18;57.99;39.70;80.53;;
58197;Laerm;43999;51.660;5.616;2023-03-23T03:47:45;57.42;40.89;77.67;;
58197;Laerm;43999;51.660;5.616;2023-03-23T03:50:12;64.21;40.89;86.10;;
58197;Laerm;43999;51.660;5.616;2023-03-23T03:52:45;57.75;40.71;76.47;;
58197;Laerm;43999;51.660;5.616;2023-03-23T03:55:11;59.50;40.43;84.83;;
58197;Laerm;43999;51.660;5.616;2023-03-23T03:57:42;68.51;40.13;91.09;;
58197;Laerm;43999;51.660;5.616;2023-03-23T04:00:31;56.61;40.33;83.47;;
58197;Laerm;43999;51.660;5.616;2023-03-23T04:02:58;55.70;40.71;80.20;;
58197;Laerm;43999;51.660;5.616;2023-03-23T04:05:44;56.49;41.96;72.57;;
58197;Laerm;43999;51.660;5.616;2023-03-23T04:08:12;55.59;41.06;76.63;;
58197;Laerm;43999;51.660;5.616;2023-03-23T04:10:40;59.88;40.89;85.47;;
58197;Laerm;43999;51.660;5.616;2023-03-23T04:13:07;63.97;41.14;89.08;;
58197;Laerm;43999;51.660;5.616;2023-03-23T04:15:52;59.17;41.96;83.20;;
58197;Laerm;43999;51.660;5.616;2023-03-23T04:18:19;58.86;42.41;82.11;;
58197;Laerm;43999;51.660;5.616;2023-03-23T04:20:48;54.72;41.68;80.14;;
58197;Laerm;43999;51.660;5.616;2023-03-23T04:23:20;62.48;42.59;84.77;;
58197;Laerm;43999;51.660;5.616;2023-03-23T04:25:52;60.10;43.29;84.58;;
58197;Laerm;43999;51.660;5.616;2023-03-23T04:28:26;55.98;42.29;76.50;;
58197;Laerm;43999;51.660;5.616;2023-03-23T04:31:12;59.83;42.76;90.30;;
58197;Laerm;43999;51.660;5.616;2023-03-23T04:33:44;57.14;42.93;83.26;;
58197;Laerm;43999;51.660;5.616;2023-03-23T04:36:13;65.60;44.80;90.17;;
58197;Laerm;43999;51.660;5.616;2023-03-23T04:38:51;60.06;41.14;84.23;;
58197;Laerm;43999;51.660;5.616;2023-03-23T04:41:23;57.29;41.89;80.40;;
58197;Laerm;43999;51.660;5.616;2023-03-23T04:44:13;64.77;42.93;90.51;;
58197;Laerm;43999;51.660;5.616;2023-03-23T04:46:47;57.93;45.01;79.68;;
58197;Laerm;43999;51.660;5.616;2023-03-23T04:49:19;55.98;42.47;79.40;;
58197;Laerm;43999;51.660;5.616;2023-03-23T04:51:50;66.75;44.07;87.67;;
58197;Laerm;43999;51.660;5.616;2023-03-23T04:54:41;64.81;43.04;87.26;;
58197;Laerm;43999;51.660;5.616;2023-03-23T04:57:11;70.94;45.60;97.05;;
58197;Laerm;43999;51.660;5.616;2023-03-23T04:59:45;66.53;43.81;91.53;;
58197;Laerm;43999;51.660;5.616;2023-03-23T05:02:23;64.33;45.91;86.99;;
58197;Laerm;43999;51.660;5.616;2023-03-23T05:04:53;63.38;46.87;85.66;;
58197;Laerm;43999;51.660;5.616;2023-03-23T05:07:25;69.59;45.11;95.34;;
58197;Laerm;43999;51.660;5.616;2023-03-23T05:09:53;57.62;43.09;70.03;;
58197;Laerm;43999;51.660;5.616;2023-03-23T05:12:22;71.21;43.86;95.58;;
58197;Laerm;43999;51.660;5.616;2023-03-23T05:14:53;58.66;45.01;73.33;;
58197;Laerm;43999;51.660;5.616;2023-03-23T05:17:24;63.46;43.54;84.00;;
58197;Laerm;43999;51.660;5.616;2023-03-23T05:19:53;59.31;45.11;77.13;;
58197;Laerm;43999;51.660;5.616;2023-03-23T05:22:51;62.92;43.19;86.02;;
58197;Laerm;43999;51.660;5.616;2023-03-23T05:25:27;69.65;44.83;93.78;;
58197;Laerm;43999;51.660;5.616;2023-03-23T05:28:04;63.97;46.84;81.28;;
58197;Laerm;43999;51.660;5.616;2023-03-23T05:30:53;67.31;47.22;91.85;;
58197;Laerm;43999;51.660;5.616;2023-03-23T05:33:24;59.96;43.99;79.29;;
58197;Laerm;43999;51.660;5.616;2023-03-23T05:36:03;61.25;45.89;83.22;;
58197;Laerm;43999;51.660;5.616;2023-03-23T05:38:40;70.41;46.13;96.00;;
58197;Laerm;43999;51.660;5.616;2023-03-23T05:41:15;66.77;45.36;89.63;;
58197;Laerm;43999;51.660;5.616;2023-03-23T05:43:42;62.28;48.08;88.95;;
58197;Laerm;43999;51.660;5.616;2023-03-23T05:46:26;62.68;49.51;81.36;;
58197;Laerm;43999;51.660;5.616;2023-03-23T05:48:57;69.91;47.91;92.04;;
58197;Laerm;43999;51.660;5.616;2023-03-23T05:51:30;60.23;48.85;73.71;;
58197;Laerm;43999;51.660;5.616;2023-03-23T05:53:56;67.97;45.23;91.66;;
58197;Laerm;43999;51.660;5.616;2023-03-23T05:56:22;71.76;50.51;91.99;;
58197;Laerm;43999;51.660;5.616;2023-03-23T05:59:15;63.12;45.75;78.73;;
58197;Laerm;43999;51.660;5.616;2023-03-23T06:01:45;71.22;48.74;95.88;;
58197;Laerm;43999;51.660;5.616;2023-03-23T06:04:12;60.97;47.86;81.94;;
58197;Laerm;43999;51.660;5.616;2023-03-23T06:06:57;72.52;49.36;94.35;;
58197;Laerm;43999;51.660;5.616;2023-03-23T06:09:23;71.63;51.76;94.33;;
58197;Laerm;43999;51.660;5.616;2023-03-23T06:12:08;65.57;49.44;87.96;;
58197;Laerm;43999;51.660;5.616;2023-03-23T06:14:48;68.35;49.28;91.85;;
58197;Laerm;43999;51.660;5.616;2023-03-23T06:17:18;62.25;48.73;82.00;;
58197;Laerm;43999;51.660;5.616;2023-03-23T06:19:46;65.40;51.22;83.60;;
58197;Laerm;43999;51.660;5.616;2023-03-23T06:22:17;63.24;50.75;81.27;;
58197;Laerm;43999;51.660;5.616;2023-03-23T06:24:44;66.34;50.49;87.21;;
58197;Laerm;43999;51.660;5.616;2023-03-23T06:27:15;66.20;53.01;86.47;;
58197;Laerm;43999;51.660;5.616;2023-03-23T06:29:44;64.85;51.77;87.23;;
58197;Laerm;43999;51.660;5.616;2023-03-23T06:32:12;62.41;51.64;81.88;;
58197;Laerm;43999;51.660;5.616;2023-03-23T06:34:43;63.89;52.57;87.09;;
58197;Laerm;43999;51.660;5.616;2023-03-23T06:37:39;61.22;49.28;75.22;;
58197;Laerm;43999;51.660;5.616;2023-03-23T06:40:13;62.98;50.38;82.37;;
58197;Laerm;43999;51.660;5.616;2023-03-23T06:42:43;66.27;51.91;85.82;;
58197;Laerm;43999;51.660;5.616;2023-03-23T06:45:40;68.04;50.77;87.55;;
58197;Laerm;43999;51.660;5.616;2023-03-23T06:48:26;67.21;52.39;84.03;;
58197;Laerm;43999;51.660;5.616;2023-03-23T06:50:53;62.68;51.77;77.74;;
58197;Laerm;43999;51.660;5.616;2023-03-23T06:53:21;65.01;53.44;88.90;;
58197;Laerm;43999;51.660;5.616;2023-03-23T06:55:49;70.88;52.99;92.99;;
58197;Laerm;43999;51.660;5.616;2023-03-23T06:58:16;67.15;55.30;88.97;;
58197;Laerm;43999;51.660;5.616;2023-03-23T07:00:42;69.82;52.66;93.23;;
58197;Laerm;43999;51.660;5.616;2023-03-23T07:03:12;68.54;53.45;90.85;;
58197;Laerm;43999;51.660;5.616;2023-03-23T07:05:39;66.21;53.50;86.78;;
58197;Laerm;43999;51.660;5.616;2023-03-23T07:08:06;66.92;52.77;76.40;;
58197;Laerm;43999;51.660;5.616;2023-03-23T07:10:36;71.74;59.86;89.66;;
58197;Laerm;43999;51.660;5.616;2023-03-23T07:13:04;69.62;56.91;82.21;;
58197;Laerm;43999;51.660;5.616;2023-03-23T07:15:41;74.08;59.49;97.84;;
58197;Laerm;43999;51.660;5.616;2023-03-23T07:18:08;69.76;57.13;83.43;;
58197;Laerm;43999;51.660;5.616;2023-03-23T07:20:42;66.42;56.59;87.29;;
58197;Laerm;43999;51.660;5.616;2023-03-23T07:23:09;74.06;60.05;84.69;;
58197;Laerm;43999;51.660;5.616;2023-03-23T07:25:44;74.84;66.74;92.38;;
58197;Laerm;43999;51.660;5.616;2023-03-23T07:28:16;73.52;66.69;86.41;;
58197;Laerm;43999;51.660;5.616;2023-03-23T07:30:43;72.40;62.95;80.19;;
58197;Laerm;43999;51.660;5.616;2023-03-23T07:33:11;68.74;55.26;77.12;;
58197;Laerm;43999;51.660;5.616;2023-03-23T07:35:38;68.13;56.98;83.85;;
58197;Laerm;43999;51.660;5.616;2023-03-23T07:38:11;68.85;57.20;80.30;;
58197;Laerm;43999;51.660;5.616;2023-03-23T07:40:38;72.55;61.54;91.86;;
58197;Laerm;43999;51.660;5.616;2023-03-23T07:43:14;68.92;57.37;86.39;;
58197;Laerm;43999;51.660;5.616;2023-03-23T07:46:01;70.06;58.25;87.60;;
58197;Laerm;43999;51.660;5.616;2023-03-23T07:48:50;71.22;58.40;85.83;;
58197;Laerm;43999;51.660;5.616;2023-03-23T07:51:19;71.53;60.01;89.63;;
58197;Laerm;43999;51.660;5.616;2023-03-23T07:53:49;71.66;60.40;90.24;;
58197;Laerm;43999;51.660;5.616;2023-03-23T07:56:36;70.09;60.41;94.57;;
58197;Laerm;43999;51.660;5.616;2023-03-23T07:59:23;69.37;58.49;84.69;;
58197;Laerm;43999;51.660;5.616;2023-03-23T08:01:50;69.46;56.81;84.05;;
58197;Laerm;43999;51.660;5.616;2023-03-23T08:04:42;68.59;56.11;82.02;;
58197;Laerm;43999;51.660;5.616;2023-03-23T08:07:29;69.11;55.54;84.99;;
58197;Laerm;43999;51.660;5.616;2023-03-23T08:10:16;68.80;52.89;85.18;;
58197;Laerm;43999;51.660;5.616;2023-03-23T08:13:04;69.61;57.72;88.34;;
58197;Laerm;43999;51.660;5.616;2023-03-23T08:16:00;68.22;55.60;77.60;;
58197;Laerm;43999;51.660;5.616;2023-03-23T08:18:47;68.88;58.62;78.53;;
58197;Laerm;43999;51.660;5.616;2023-03-23T08:21:37;67.13;57.53;81.08;;
58197;Laerm;43999;51.660;5.616;2023-03-23T08:24:25;66.94;55.77;76.51;;
58197;Laerm;43999;51.660;5.616;2023-03-23T08:27:15;68.91;54.20;78.02;;
58197;Laerm;43999;51.660;5.616;2023-03-23T08:30:06;68.52;53.44;85.07;;
58197;Laerm;43999;51.660;5.616;2023-03-23T08:32:47;68.64;56.45;84.23;;
58197;Laerm;43999;51.660;5.616;2023-03-23T08:35:19;67.49;57.34;82.11;;
58197;Laerm;43999;51.660;5.616;2023-03-23T08:38:05;68.52;55.00;87.07;;
58197;Laerm;43999;51.660;5.616;2023-03-23T08:40:35;66.42;54.38;85.64;;
58197;Laerm;43999;51.660;5.616;2023-03-23T08:43:20;69.11;57.29;89.77;;
58197;Laerm;43999;51.660;5.616;2023-03-23T08:46:21;69.84;54.57;86.19;;
58197;Laerm;43999;51.660;5.616;2023-03-23T08:49:13;67.67;52.58;86.62;;
58197;Laerm;43999;51.660;5.616;2023-03-23T08:51:59;70.56;56.21;92.25;;
58197;Laerm;43999;51.660;5.616;2023-03-23T08:54:48;68.16;56.31;86.81;;
58197;Laerm;43999;51.660;5.616;2023-03-23T08:57:47;67.79;52.96;83.93;;
58197;Laerm;43999;51.660;5.616;2023-03-23T09:00:23;66.51;57.45;85.27;;
58197;Laerm;43999;51.660;5.616;2023-03-23T09:03:18;68.76;55.99;91.04;;
58197;Laerm;43999;51.660;5.616;2023-03-23T09:06:09;70.39;54.94;85.16;;
58197;Laerm;43999;51.660;5.616;2023-03-23T09:08:45;69.58;57.56;84.26;;
58197;Laerm;43999;51.660;5.616;2023-03-23T09:11:11;66.38;56.02;86.11;;
58197;Laerm;43999;51.660;5.616;2023-03-23T09:13:39;66.25;58.95;77.39;;
58197;Laerm;43999;51.660;5.616;2023-03-23T09:16:07;71.23;59.30;90.87;;
58197;Laerm;43999;51.660;5.616;2023-03-23T09:18:35;68.04;56.46;89.24;;
58197;Laerm;43999;51.660;5.616;2023-03-23T09:21:03;70.14;56.50;91.48;;
58197;Laerm;43999;51.660;5.616;2023-03-23T09:23:31;67.55;53.56;93.53;;
58197;Laerm;43999;51.660;5.616;2023-03-23T09:26:00;68.36;54.15;89.05;;
58197;Laerm;43999;51.660;5.616;2023-03-23T09:28:27;68.30;54.26;80.71;;
58197;Laerm;43999;51.660;5.616;2023-03-23T09:30:55;68.05;56.90;87.70;;
58197;Laerm;43999;51.660;5.616;2023-03-23T09:33:26;69.70;61.30;86.06;;
58197;Laerm;43999;51.660;5.616;2023-03-23T09:35:53;69.36;60.68;83.25;;
58197;Laerm;43999;51.660;5.616;2023-03-23T09:38:19;68.49;57.15;79.86;;
58197;Laerm;43999;51.660;5.616;2023-03-23T09:50:32;65.62;54.07;84.10;;
58197;Laerm;43999;51.660;5.616;2023-03-23T09:53:22;66.90;55.79;84.43;;
58197;Laerm;43999;51.660;5.616;2023-03-23T09:55:49;69.33;54.60;85.91;;
58197;Laerm;43999;51.660;5.616;2023-03-23T09:58:27;65.11;53.22;79.43;;
58197;Laerm;43999;51.660;5.616;2023-03-23T10:01:40;65.75;53.41;81.46;;
58197;Laerm;43999;51.660;5.616;2023-03-23T10:04:38;64.09;52.83;76.93;;
58197;Laerm;43999;51.660;5.616;2023-03-23T10:07:27;63.38;53.96;76.52;;
58197;Laerm;43999;51.660;5.616;2023-03-23T10:10:00;72.88;56.01;94.20;;
58197;Laerm;43999;51.660;5.616;2023-03-23T10:15:51;65.39;54.79;88.25;;
58197;Laerm;43999;51.660;5.616;2023-03-23T10:18:37;65.63;55.30;88.91;;
58197;Laerm;43999;51.660;5.616;2023-03-23T10:21:17;65.42;55.67;88.52;;
58197;Laerm;43999;51.660;5.616;2023-03-23T10:23:53;64.74;54.60;80.83;;
58197;Laerm;43999;51.660;5.616;2023-03-23T10:31:44;64.64;56.13;82.37;;
58197;Laerm;43999;51.660;5.616;2023-03-23T10:34:41;66.21;55.15;86.06;;
58197;Laerm;43999;51.660;5.616;2023-03-23T10:37:46;66.17;54.00;86.63;;
58197;Laerm;43999;51.660;5.616;2023-03-23T10:40:24;70.98;54.61;97.20;;
58197;Laerm;43999;51.660;5.616;2023-03-23T10:42:53;68.51;55.58;89.97;;
58197;Laerm;43999;51.660;5.616;2023-03-23T10:45:25;63.35;52.12;84.97;;
58197;Laerm;43999;51.660;5.616;2023-03-23T10:48:24;66.15;54.31;86.92;;
58197;Laerm;43999;51.660;5.616;2023-03-23T10:50:59;64.92;56.26;78.68;;
58197;Laerm;43999;51.660;5.616;2023-03-23T10:53:42;64.95;52.77;83.16;;
58197;Laerm;43999;51.660;5.616;2023-03-23T10:56:40;64.29;52.80;81.49;;
58197;Laerm;43999;51.660;5.616;2023-03-23T10:59:29;63.82;53.11;85.52;;
58197;Laerm;43999;51.660;5.616;2023-03-23T11:02:02;71.71;51.08;95.02;;
58197;Laerm;43999;51.660;5.616;2023-03-23T11:04:30;63.95;52.80;76.62;;
58197;Laerm;43999;51.660;5.616;2023-03-23T11:07:02;72.33;52.65;95.94;;
58197;Laerm;43999;51.660;5.616;2023-03-23T11:09:53;68.40;55.80;87.83;;
58197;Laerm;43999;51.660;5.616;2023-03-23T11:12:20;68.13;56.72;87.39;;
58197;Laerm;43999;51.660;5.616;2023-03-23T11:14:48;68.52;57.33;85.94;;
58197;Laerm;43999;51.660;5.616;2023-03-23T11:17:27;69.70;54.77;90.05;;
58197;Laerm;43999;51.660;5.616;2023-03-23T11:19:54;69.91;54.78;89.36;;
58197;Laerm;43999;51.660;5.616;2023-03-23T11:22:33;67.62;53.46;90.35;;
58197;Laerm;43999;51.660;5.616;2023-03-23T11:25:05;63.98;52.44;79.43;;
58197;Laerm;43999;51.660;5.616;2023-03-23T11:27:33;64.26;54.02;74.87;;
58197;Laerm;43999;51.660;5.616;2023-03-23T11:30:27;69.16;56.86;93.09;;
58197;Laerm;43999;51.660;5.616;2023-03-23T11:33:02;66.90;55.55;85.19;;
58197;Laerm;43999;51.660;5.616;2023-03-23T11:35:29;65.94;57.87;88.87;;
58197;Laerm;43999;51.660;5.616;2023-03-23T11:37:59;65.06;55.20;86.03;;
58197;Laerm;43999;51.660;5.616;2023-03-23T11:40:30;65.83;53.89;83.94;;
58197;Laerm;43999;51.660;5.616;2023-03-23T11:43:13;64.78;56.50;74.47;;
58197;Laerm;43999;51.660;5.616;2023-03-23T11:46:09;65.65;56.26;81.13;;
58197;Laerm;43999;51.660;5.616;2023-03-23T11:49:01;69.99;54.71;91.57;;
58197;Laerm;43999;51.660;5.616;2023-03-23T11:51:56;66.07;52.05;89.72;;
58197;Laerm;43999;51.660;5.616;2023-03-23T11:54:48;65.11;57.04;79.27;;
58197;Laerm;43999;51.660;5.616;2023-03-23T11:57:17;65.04;55.75;76.18;;
58197;Laerm;43999;51.660;5.616;2023-03-23T11:59:44;64.90;55.01;83.39;;
58197;Laerm;43999;51.660;5.616;2023-03-23T12:02:39;69.58;54.60;88.32;;
58197;Laerm;43999;51.660;5.616;2023-03-23T12:21:18;78.33;57.88;94.08;;
58197;Laerm;43999;51.660;5.616;2023-03-23T12:30:26;65.94;53.28;77.70;;
58197;Laerm;43999;51.660;5.616;2023-03-23T12:40:36;75.09;53.46;92.27;;
58197;Laerm;43999;51.660;5.616;2023-03-23T12:43:52;74.61;54.84;96.70;;
58197;Laerm;43999;51.660;5.616;2023-03-23T12:50:09;69.90;53.30;91.57;;
58197;Laerm;43999;51.660;5.616;2023-03-23T12:53:10;67.86;55.54;85.12;;
58197;Laerm;43999;51.660;5.616;2023-03-23T12:56:16;77.89;57.01;91.11;;
58197;Laerm;43999;51.660;5.616;2023-03-23T12:59:20;72.30;55.23;93.76;;
58197;Laerm;43999;51.660;5.616;2023-03-23T13:05:05;72.79;54.18;91.12;;
58197;Laerm;43999;51.660;5.616;2023-03-23T13:07:45;69.26;54.25;86.83;;
58197;Laerm;43999;51.660;5.616;2023-03-23T13:10:28;68.22;56.93;84.59;;
58197;Laerm;43999;51.660;5.616;2023-03-23T13:12:56;74.15;57.68;91.64;;
58197;Laerm;43999;51.660;5.616;2023-03-23T13:15:53;69.38;55.77;84.56;;
58197;Laerm;43999;51.660;5.616;2023-03-23T13:21:41;74.00;54.95;91.30;;
58197;Laerm;43999;51.660;5.616;2023-03-23T13:24:21;66.24;55.38;82.99;;
58197;Laerm;43999;51.660;5.616;2023-03-23T13:26:50;69.55;56.95;90.88;;
58197;Laerm;43999;51.660;5.616;2023-03-23T13:29:22;73.51;57.89;92.81;;
58197;Laerm;43999;51.660;5.616;2023-03-23T13:32:18;68.06;52.65;90.68;;
58197;Laerm;43999;51.660;5.616;2023-03-23T13:34:47;65.67;53.04;88.72;;
58197;Laerm;43999;51.660;5.616;2023-03-23T13:37:26;63.85;55.10;78.79;;
58197;Laerm;43999;51.660;5.616;2023-03-23T13:39:56;72.16;55.09;89.10;;
58197;Laerm;43999;51.660;5.616;2023-03-23T13:42:29;66.07;54.67;82.07;;
58197;Laerm;43999;51.660;5.616;2023-03-23T13:45:47;65.81;54.24;81.09;;
58197;Laerm;43999;51.660;5.616;2023-03-23T13:51:00;66.31;57.26;83.70;;
58197;Laerm;43999;51.660;5.616;2023-03-23T13:53:47;67.22;55.59;81.39;;
58197;Laerm;43999;51.660;5.616;2023-03-23T13:56:20;64.16;57.71;77.29;;
58197;Laerm;43999;51.660;5.616;2023-03-23T13:59:07;73.35;60.39;90.48;;
58197;Laerm;43999;51.660;5.616;2023-03-23T14:01:38;74.25;61.59;84.39;;
58197;Laerm;43999;51.660;5.616;2023-03-23T14:04:17;72.30;62.76;88.62;;
58197;Laerm;43999;51.660;5.616;2023-03-23T14:06:50;71.80;62.24;86.82;;
58197;Laerm;43999;51.660;5.616;2023-03-23T14:09:42;70.30;57.47;81.40;;
58197;Laerm;43999;51.660;5.616;2023-03-23T14:12:30;70.21;61.36;79.41;;
58197;Laerm;43999;51.660;5.616;2023-03-23T14:15:03;71.22;58.38;86.44;;
58197;Laerm;43999;51.660;5.616;2023-03-23T14:17:43;69.90;57.39;80.90;;
58197;Laerm;43999;51.660;5.616;2023-03-23T14:20:30;69.36;59.81;78.36;;
58197;Laerm;43999;51.660;5.616;2023-03-23T14:23:01;67.40;53.54;79.04;;
58197;Laerm;43999;51.660;5.616;2023-03-23T14:25:31;69.35;54.60;83.78;;
58197;Laerm;43999;51.660;5.616;2023-03-23T14:27:59;70.65;56.71;83.66;;
58197;Laerm;43999;51.660;5.616;2023-03-23T14:30:36;66.88;58.98;79.62;;
58197;Laerm;43999;51.660;5.616;2023-03-23T14:33:07;68.40;59.08;78.61;;
58197;Laerm;43999;51.660;5.616;2023-03-23T14:35:41;67.39;57.01;78.02;;
58197;Laerm;43999;51.660;5.616;2023-03-23T14:38:21;64.45;52.45;76.05;;
58197;Laerm;43999;51.660;5.616;2023-03-23T14:40:51;65.82;53.60;76.14;;
58197;Laerm;43999;51.660;5.616;2023-03-23T14:43:21;63.24;52.70;76.24;;
58197;Laerm;43999;51.660;5.616;2023-03-23T14:45:56;63.92;54.51;80.27;;
58197;Laerm;43999;51.660;5.616;2023-03-23T14:48:25;65.84;56.52;72.23;;
58197;Laerm;43999;51.660;5.616;2023-03-23T14:50:59;65.54;58.06;76.94;;
58197;Laerm;43999;51.660;5.616;2023-03-23T14:53:39;65.12;53.98;74.98;;
58197;Laerm;43999;51.660;5.616;2023-03-23T14:56:36;66.65;55.75;82.86;;
58197;Laerm;43999;51.660;5.616;2023-03-23T14:59:21;65.25;54.36;80.63;;
58197;Laerm;43999;51.660;5.616;2023-03-23T15:01:51;65.62;53.22;80.54;;
58197;Laerm;43999;51.660;5.616;2023-03-23T15:04:24;65.42;53.36;85.33;;
58197;Laerm;43999;51.660;5.616;2023-03-23T15:07:00;64.12;55.16;82.75;;
58197;Laerm;43999;51.660;5.616;2023-03-23T15:09:28;64.68;57.60;81.85;;
58197;Laerm;43999;51.660;5.616;2023-03-23T15:12:00;65.74;57.07;84.63;;
58197;Laerm;43999;51.660;5.616;2023-03-23T15:14:51;66.67;53.74;85.91;;
58197;Laerm;43999;51.660;5.616;2023-03-23T15:17:29;64.13;52.66;85.27;;
58197;Laerm;43999;51.660;5.616;2023-03-23T15:21:07;65.38;55.55;80.08;;
58197;Laerm;43999;51.660;5.616;2023-03-23T15:23:13;72.25;56.26;94.33;;
58197;Laerm;43999;51.660;5.616;2023-03-23T15:25:53;66.27;53.15;87.23;;
58197;Laerm;43999;51.660;5.616;2023-03-23T15:28:32;67.33;53.59;87.77;;
58197;Laerm;43999;51.660;5.616;2023-03-23T15:31:06;70.24;52.61;92.43;;
58197;Laerm;43999;51.660;5.616;2023-03-23T15:33:40;62.90;54.40;83.99;;
58197;Laerm;43999;51.660;5.616;2023-03-23T15:36:17;64.58;54.81;76.51;;
58197;Laerm;43999;51.660;5.616;2023-03-23T15:38:46;66.27;57.18;82.37;;
58197;Laerm;43999;51.660;5.616;2023-03-23T15:41:32;64.88;57.52;82.16;;
58197;Laerm;43999;51.660;5.616;2023-03-23T15:44:22;66.26;58.16;84.16;;
58197;Laerm;43999;51.660;5.616;2023-03-23T15:47:32;67.89;54.47;84.73;;
58197;Laerm;43999;51.660;5.616;2023-03-23T15:50:12;66.06;56.86;88.19;;
58197;Laerm;43999;51.660;5.616;2023-03-23T15:52:41;63.17;54.47;75.74;;
58197;Laerm;43999;51.660;5.616;2023-03-23T15:55:29;65.72;55.30;78.03;;
58197;Laerm;43999;51.660;5.616;2023-03-23T15:57:58;66.31;57.23;81.35;;